createdAt,value
2019-05-03T00:02:22.254Z,11.20
2019-05-03T00:04:59.359Z,11.20
2019-05-03T00:07:28.331Z,11.20
2019-05-03T00:09:57.165Z,11.20
2019-05-03T00:12:26.045Z,11.10
2019-05-03T00:14:56.447Z,11.10
2019-05-03T00:17:25.324Z,11.10
2019-05-03T00:19:54.159Z,11.10
2019-05-03T00:22:23.033Z,11.10
2019-05-03T00:25:03.959Z,11.10
2019-05-03T00:27:22.383Z,11.00
2019-05-03T00:29:52.407Z,11.00
2019-05-03T00:32:22.692Z,11.00
2019-05-03T00:34:53.135Z,11.00
2019-05-03T00:37:23.555Z,11.00
2019-05-03T00:40:05.257Z,11.00
2019-05-03T00:42:34.082Z,11.00
2019-05-03T00:45:03.051Z,10.90
2019-05-03T00:47:32.869Z,10.90
2019-05-03T00:50:02.840Z,10.90
2019-05-03T00:52:32.024Z,10.90
2019-05-03T00:55:02.390Z,10.90
2019-05-03T00:57:32.563Z,10.90
2019-05-03T01:00:02.126Z,10.80
2019-05-03T01:02:31.861Z,10.80
2019-05-03T01:05:02.859Z,10.80
2019-05-03T01:07:31.932Z,10.80
2019-05-03T01:10:02.634Z,10.80
2019-05-03T01:12:32.412Z,10.70
2019-05-03T01:15:03.375Z,10.70
2019-05-03T01:17:32.715Z,10.70
2019-05-03T01:20:02.866Z,10.70
2019-05-03T01:22:32.199Z,10.70
2019-05-03T01:25:03.078Z,10.70
2019-05-03T01:27:32.570Z,10.70
2019-05-03T01:30:02.857Z,10.70
2019-05-03T01:32:32.892Z,10.70
2019-05-03T01:35:03.128Z,10.60
2019-05-03T01:37:32.394Z,10.60
2019-05-03T01:40:02.239Z,10.60
2019-05-03T01:42:32.093Z,10.60
2019-05-03T01:45:01.814Z,10.60
2019-05-03T01:47:38.222Z,10.60
2019-05-03T01:50:26.783Z,10.50
2019-05-03T01:53:06.248Z,10.50
2019-05-03T01:55:53.535Z,10.50
2019-05-03T01:58:23.374Z,10.40
2019-05-03T02:00:57.387Z,10.30
2019-05-03T02:03:43.986Z,10.30
2019-05-03T02:06:12.866Z,10.30
2019-05-03T02:08:41.885Z,10.30
2019-05-03T02:11:11.655Z,10.20
2019-05-03T02:13:42.651Z,10.20
2019-05-03T02:16:11.611Z,10.20
2019-05-03T02:18:42.282Z,10.20
2019-05-03T02:21:12.208Z,10.20
2019-05-03T02:23:42.523Z,10.10
2019-05-03T02:26:11.821Z,10.10
2019-05-03T02:28:42.135Z,10.10
2019-05-03T02:31:13.463Z,10.10
2019-05-03T02:33:43.404Z,10.10
2019-05-03T02:36:13.644Z,10.10
2019-05-03T02:38:43.172Z,10.10
2019-05-03T02:41:13.436Z,10.10
2019-05-03T02:43:49.989Z,10.10
2019-05-03T02:46:20.428Z,10.10
2019-05-03T02:48:56.627Z,10.10
2019-05-03T02:51:26.240Z,10.10
2019-05-03T02:53:57.064Z,10.00
2019-05-03T02:56:26.243Z,10.10
2019-05-03T02:58:55.963Z,10.10
2019-05-03T03:01:26.491Z,10.10
2019-05-03T03:03:56.654Z,10.00
2019-05-03T03:06:27.169Z,10.00
2019-05-03T03:08:58.641Z,10.10
2019-05-03T03:11:30.068Z,10.00
2019-05-03T03:14:00.040Z,10.00
2019-05-03T03:16:30.752Z,10.00
2019-05-03T03:19:02.560Z,10.00
2019-05-03T03:21:36.119Z,10.00
2019-05-03T03:24:12.748Z,10.00
2019-05-03T03:26:43.614Z,10.00
2019-05-03T03:29:16.088Z,10.00
2019-05-03T03:32:00.240Z,10.00
2019-05-03T03:34:39.165Z,10.00
2019-05-03T03:37:10.274Z,10.00
2019-05-03T03:39:40.082Z,10.00
2019-05-03T03:42:10.116Z,10.00
2019-05-03T03:44:39.192Z,10.00
2019-05-03T03:47:09.839Z,9.90
2019-05-03T03:49:40.670Z,10.00
2019-05-03T03:52:12.003Z,9.90
2019-05-03T03:54:45.747Z,9.90
2019-05-03T03:57:16.364Z,9.90
2019-05-03T03:59:45.629Z,9.80
2019-05-03T04:02:16.008Z,9.80
2019-05-03T04:04:45.657Z,9.80
2019-05-03T04:07:15.992Z,9.80
2019-05-03T04:09:45.837Z,9.80
2019-05-03T04:12:16.488Z,9.80
2019-05-03T04:14:56.231Z,9.80
2019-05-03T04:17:45.460Z,9.80
2019-05-03T04:20:16.286Z,9.80
2019-05-03T04:22:45.462Z,9.80
2019-05-03T04:25:15.717Z,9.80
2019-05-03T04:27:45.622Z,9.80
2019-05-03T04:30:16.458Z,9.80
2019-05-03T04:32:45.593Z,9.70
2019-05-03T04:35:16.479Z,9.70
2019-05-03T04:37:45.510Z,9.70
2019-05-03T04:40:15.560Z,9.70
2019-05-03T04:42:46.493Z,9.70
2019-05-03T04:45:16.481Z,9.80
2019-05-03T04:47:46.324Z,9.80
2019-05-03T04:50:16.282Z,9.80
2019-05-03T04:52:46.395Z,9.80
2019-05-03T04:55:16.144Z,9.80
2019-05-03T04:57:49.106Z,9.80
2019-05-03T05:00:16.217Z,9.80
2019-05-03T05:02:46.025Z,9.90
2019-05-03T05:05:15.526Z,9.90
2019-05-03T05:07:45.695Z,9.90
2019-05-03T05:10:15.457Z,9.90
2019-05-03T05:12:45.854Z,9.90
2019-05-03T05:15:26.878Z,9.90
2019-05-03T05:17:57.379Z,9.90
2019-05-03T05:20:30.783Z,9.90
2019-05-03T05:22:59.649Z,9.80
2019-05-03T05:25:30.095Z,9.80
2019-05-03T05:28:00.499Z,9.80
2019-05-03T05:30:29.775Z,9.80
2019-05-03T05:32:58.611Z,9.80
2019-05-03T05:35:27.479Z,9.80
2019-05-03T05:37:56.312Z,9.80
2019-05-03T05:40:25.285Z,9.80
2019-05-03T05:42:54.598Z,9.80
2019-05-03T05:45:24.595Z,9.80
2019-05-03T05:47:58.035Z,9.80
2019-05-03T05:50:34.677Z,9.70
2019-05-03T05:53:04.993Z,9.80
2019-05-03T05:55:52.038Z,9.80
2019-05-03T05:58:25.417Z,9.70
2019-05-03T06:01:05.542Z,9.80
2019-05-03T06:03:34.463Z,9.80
2019-05-03T06:06:15.303Z,9.70
2019-05-03T06:08:54.818Z,9.80
2019-05-03T06:11:42.089Z,9.80
2019-05-03T06:14:15.556Z,9.80
2019-05-03T06:16:51.972Z,9.70
2019-05-03T06:19:22.411Z,9.70
2019-05-03T06:21:55.579Z,9.70
2019-05-03T06:24:28.973Z,9.70
2019-05-03T06:26:59.429Z,9.70
2019-05-03T06:29:28.298Z,9.60
2019-05-03T06:32:15.356Z,9.60
2019-05-03T06:34:45.502Z,9.60
2019-05-03T06:37:16.071Z,9.60
2019-05-03T06:39:45.496Z,9.60
2019-05-03T06:42:16.044Z,9.60
2019-05-03T06:44:45.516Z,9.60
2019-05-03T06:47:14.917Z,9.60
2019-05-03T06:49:48.173Z,9.60
2019-05-03T06:52:14.820Z,9.60
2019-05-03T06:54:44.965Z,9.60
2019-05-03T06:57:15.588Z,9.60
2019-05-03T06:59:48.475Z,9.60
2019-05-03T07:02:25.126Z,9.60
2019-05-03T07:04:56.196Z,9.60
2019-05-03T07:07:32.827Z,9.60
2019-05-03T07:10:06.003Z,9.60
2019-05-03T07:12:54.691Z,9.60
2019-05-03T07:15:25.152Z,9.60
2019-05-03T07:17:55.618Z,9.60
2019-05-03T07:20:25.515Z,9.60
2019-05-03T07:22:55.902Z,9.50
2019-05-03T07:25:25.584Z,9.50
2019-05-03T07:27:55.567Z,9.50
2019-05-03T07:30:24.966Z,9.50
2019-05-03T07:32:55.782Z,9.40
2019-05-03T07:35:25.186Z,9.40
2019-05-03T07:37:55.377Z,9.30
2019-05-03T07:40:25.340Z,9.30
2019-05-03T07:42:55.454Z,9.30
2019-05-03T07:45:25.492Z,9.20
2019-05-03T07:47:55.789Z,9.20
2019-05-03T07:50:25.855Z,9.20
2019-05-03T07:52:55.602Z,9.20
2019-05-03T07:55:38.907Z,9.20
2019-05-03T07:58:09.344Z,9.10
2019-05-03T08:00:38.203Z,9.10
2019-05-03T08:03:07.044Z,9.10
2019-05-03T08:05:35.888Z,9.10
2019-05-03T08:08:04.846Z,9.10
2019-05-03T08:10:34.507Z,9.10
2019-05-03T08:13:04.697Z,9.10
2019-05-03T08:15:34.791Z,9.20
2019-05-03T08:18:04.836Z,9.20
2019-05-03T08:20:35.017Z,9.30
2019-05-03T08:23:05.289Z,9.40
2019-05-03T08:25:35.469Z,9.50
2019-05-03T08:28:06.443Z,9.50
2019-05-03T08:30:37.292Z,9.60
2019-05-03T08:33:08.087Z,9.60
2019-05-03T08:35:46.172Z,9.80
2019-05-03T08:38:19.760Z,9.90
2019-05-03T08:40:57.367Z,10.10
2019-05-03T08:43:26.371Z,10.20
2019-05-03T08:45:55.521Z,10.60
2019-05-03T08:48:25.093Z,10.90
2019-05-03T08:50:55.443Z,11.30
2019-05-03T08:53:25.596Z,11.50
2019-05-03T08:55:55.272Z,11.80
2019-05-03T08:58:25.599Z,11.90
2019-05-03T09:00:55.156Z,11.90
2019-05-03T09:03:24.930Z,11.80
2019-05-03T09:05:56.359Z,11.70
2019-05-03T09:08:24.981Z,11.70
2019-05-03T09:11:01.326Z,11.70
2019-05-03T09:13:32.017Z,11.70
2019-05-03T09:16:01.041Z,12.00
2019-05-03T09:18:29.972Z,12.20
2019-05-03T09:21:08.249Z,12.40
2019-05-03T09:23:37.294Z,12.70
2019-05-03T09:26:06.107Z,12.60
2019-05-03T09:28:35.189Z,12.60
2019-05-03T09:31:04.695Z,12.60
2019-05-03T09:33:35.534Z,12.50
2019-05-03T09:36:05.353Z,12.40
2019-05-03T09:38:35.030Z,12.50
2019-05-03T09:41:05.245Z,12.60
2019-05-03T09:43:35.691Z,12.50
2019-05-03T09:46:05.196Z,12.60
2019-05-03T09:48:34.726Z,12.70
2019-05-03T09:51:05.202Z,12.60
2019-05-03T09:53:47.639Z,12.60
2019-05-03T09:56:18.080Z,12.60
2019-05-03T09:58:46.938Z,12.60
2019-05-03T10:01:15.771Z,12.60
2019-05-03T10:03:45.201Z,12.60
2019-05-03T10:06:15.326Z,12.60
2019-05-03T10:08:45.442Z,12.60
2019-05-03T10:11:15.469Z,12.60
2019-05-03T10:13:48.258Z,12.60
2019-05-03T10:16:15.803Z,12.60
2019-05-03T10:18:45.954Z,12.60
2019-05-03T10:21:15.056Z,12.60
2019-05-03T10:23:45.169Z,12.60
2019-05-03T10:26:15.057Z,12.70
2019-05-03T10:28:44.112Z,12.80
2019-05-03T10:31:12.940Z,12.80
2019-05-03T10:33:49.536Z,12.70
2019-05-03T10:36:18.408Z,12.60
2019-05-03T10:38:47.244Z,12.60
2019-05-03T10:41:16.108Z,12.50
2019-05-03T10:43:45.339Z,12.50
2019-05-03T10:46:15.966Z,12.40
2019-05-03T10:48:45.284Z,12.40
2019-05-03T10:51:15.753Z,12.40
2019-05-03T10:53:46.527Z,12.50
2019-05-03T10:56:24.464Z,12.60
2019-05-03T10:58:54.790Z,12.70
2019-05-03T11:04:35.485Z,12.80
2019-05-03T11:07:05.536Z,13.00
2019-05-03T11:09:47.972Z,13.00
2019-05-03T11:12:05.460Z,13.10
2019-05-03T11:14:35.008Z,13.20
2019-05-03T11:17:05.671Z,13.30
2019-05-03T11:19:34.901Z,13.40
2019-05-03T11:22:05.405Z,13.30
2019-05-03T11:24:35.007Z,13.40
2019-05-03T11:27:05.484Z,13.60
2019-05-03T11:29:35.544Z,13.70
2019-05-03T11:32:09.052Z,14.00
2019-05-03T11:34:47.115Z,14.10
2019-05-03T11:37:17.550Z,14.20
2019-05-03T11:39:46.374Z,14.40
2019-05-03T11:42:16.198Z,14.50
2019-05-03T11:44:45.751Z,14.60
2019-05-03T11:47:15.109Z,14.70
2019-05-03T11:49:54.665Z,14.70
2019-05-03T11:52:25.686Z,14.80
2019-05-03T11:54:55.358Z,14.70
2019-05-03T11:57:28.091Z,14.60
2019-05-03T11:59:56.928Z,14.40
2019-05-03T12:02:27.365Z,14.20
2019-05-03T12:04:56.679Z,14.00
2019-05-03T12:07:39.666Z,13.80
2019-05-03T12:10:17.559Z,13.80
2019-05-03T12:12:39.070Z,13.80
2019-05-03T12:15:08.112Z,13.90
2019-05-03T12:17:52.001Z,14.00
2019-05-03T12:20:13.482Z,14.10
2019-05-03T12:22:43.298Z,14.20
2019-05-03T12:25:13.406Z,14.20
2019-05-03T12:27:44.495Z,14.20
2019-05-03T12:30:15.345Z,14.10
2019-05-03T12:32:44.361Z,13.90
2019-05-03T12:35:16.127Z,13.90
2019-05-03T12:37:45.009Z,13.90
2019-05-03T12:40:15.103Z,13.80
2019-05-03T12:42:45.514Z,13.70
2019-05-03T12:45:15.345Z,13.60
2019-05-03T12:47:45.351Z,13.40
2019-05-03T12:50:15.674Z,13.20
2019-05-03T12:52:50.378Z,13.10
2019-05-03T12:55:16.316Z,12.90
2019-05-03T12:57:45.795Z,12.80
2019-05-03T13:00:19.892Z,12.80
2019-05-03T13:02:54.971Z,12.70
2019-05-03T13:05:24.890Z,12.70
2019-05-03T13:08:11.528Z,12.60
2019-05-03T13:10:40.398Z,12.70
2019-05-03T13:13:09.212Z,12.70
2019-05-03T13:15:38.077Z,12.70
2019-05-03T13:18:06.904Z,12.80
2019-05-03T13:20:36.109Z,12.80
2019-05-03T13:23:05.506Z,12.80
2019-05-03T13:25:35.572Z,12.90
2019-05-03T13:28:05.505Z,12.90
2019-05-03T13:30:34.631Z,13.00
2019-05-03T13:33:05.662Z,13.10
2019-05-03T13:35:35.160Z,13.10
2019-05-03T13:38:04.209Z,13.20
2019-05-03T13:40:33.075Z,13.30
2019-05-03T13:43:04.455Z,13.30
2019-05-03T13:45:32.390Z,13.40
2019-05-03T13:48:01.256Z,13.40
2019-05-03T13:50:30.123Z,13.30
2019-05-03T13:52:58.962Z,13.20
2019-05-03T13:55:28.740Z,13.20
2019-05-03T13:57:57.612Z,13.10
2019-05-03T14:00:26.451Z,13.00
2019-05-03T14:02:56.330Z,12.90
2019-05-03T14:05:25.395Z,12.80
2019-05-03T14:07:56.191Z,12.70
2019-05-03T14:10:25.132Z,12.60
2019-05-03T14:12:54.840Z,12.60
2019-05-03T14:15:25.477Z,12.50
2019-05-03T14:17:54.773Z,12.40
2019-05-03T14:20:26.206Z,12.40
2019-05-03T14:22:55.195Z,12.40
2019-05-03T14:25:24.745Z,12.30
2019-05-03T14:27:55.005Z,12.30
2019-05-03T14:30:25.287Z,12.20
2019-05-03T14:32:55.709Z,12.20
2019-05-03T14:35:25.112Z,12.10
2019-05-03T14:37:55.051Z,12.10
2019-05-03T14:40:25.120Z,12.20
2019-05-03T14:42:55.517Z,12.20
2019-05-03T14:45:25.529Z,12.20
2019-05-03T14:47:57.421Z,12.20
2019-05-03T14:50:25.523Z,12.20
2019-05-03T14:52:56.953Z,12.20
2019-05-03T14:55:35.652Z,12.30
2019-05-03T14:58:06.409Z,12.30
2019-05-03T15:00:48.837Z,12.30
2019-05-03T15:03:24.627Z,12.30
2019-05-03T15:05:55.055Z,12.30
2019-05-03T15:08:25.636Z,12.30
2019-05-03T15:10:54.799Z,12.30
2019-05-03T15:13:25.491Z,12.30
2019-05-03T15:15:54.832Z,12.30
2019-05-03T15:18:25.593Z,12.30
2019-05-03T15:20:55.019Z,12.30
2019-05-03T15:23:25.518Z,12.30
2019-05-03T15:25:56.321Z,12.30
2019-05-03T15:28:27.059Z,12.30
2019-05-03T15:30:55.967Z,12.30
2019-05-03T15:33:24.803Z,12.30
2019-05-03T15:35:55.253Z,12.30
2019-05-03T15:38:24.243Z,12.30
2019-05-03T15:40:54.815Z,12.40
2019-05-03T15:43:34.808Z,12.40
2019-05-03T15:46:14.754Z,12.40
2019-05-03T15:48:45.799Z,12.40
2019-05-03T15:51:15.093Z,12.40
2019-05-03T15:53:44.429Z,12.50
2019-05-03T15:56:14.706Z,12.60
2019-05-03T15:58:46.690Z,12.70
2019-05-03T16:01:15.300Z,12.80
2019-05-03T16:03:47.695Z,12.80
2019-05-03T16:06:16.687Z,12.80
2019-05-03T16:08:45.798Z,12.80
2019-05-03T16:11:15.448Z,12.80
2019-05-03T16:13:44.955Z,12.80
2019-05-03T16:16:15.180Z,12.70
2019-05-03T16:18:47.142Z,12.60
2019-05-03T16:21:16.093Z,12.60
2019-05-03T16:23:46.756Z,12.50
2019-05-03T16:26:17.576Z,12.50
2019-05-03T16:28:55.247Z,12.50
2019-05-03T16:31:26.610Z,12.50
2019-05-03T16:33:56.013Z,12.50
2019-05-03T16:36:24.842Z,12.40
2019-05-03T16:38:55.424Z,12.40
2019-05-03T16:41:24.915Z,12.40
2019-05-03T16:43:53.999Z,12.40
2019-05-03T16:46:23.091Z,12.30
2019-05-03T16:48:52.121Z,12.30
2019-05-03T16:51:20.935Z,12.30
2019-05-03T16:53:49.811Z,12.30
2019-05-03T16:56:19.078Z,12.30
2019-05-03T16:58:47.880Z,12.30
2019-05-03T17:01:18.187Z,12.20
2019-05-03T17:03:48.818Z,12.20
2019-05-03T17:06:22.276Z,12.20
2019-05-03T17:09:09.144Z,12.20
2019-05-03T17:11:38.012Z,12.20
2019-05-03T17:14:06.879Z,12.10
2019-05-03T17:16:35.709Z,12.10
2019-05-03T17:19:05.846Z,12.10
2019-05-03T17:21:35.048Z,12.10
2019-05-03T17:24:04.395Z,12.10
2019-05-03T17:26:35.118Z,12.10
2019-05-03T17:29:04.642Z,12.00
2019-05-03T17:31:35.244Z,12.00
2019-05-03T17:34:05.561Z,11.90
2019-05-03T17:36:34.554Z,11.90
2019-05-03T17:39:04.961Z,11.80
2019-05-03T17:41:50.395Z,11.80
2019-05-03T17:44:26.795Z,11.70
2019-05-03T17:46:55.675Z,11.70
2019-05-03T17:49:24.545Z,11.70
2019-05-03T17:52:00.701Z,11.60
2019-05-03T17:54:33.343Z,11.60
2019-05-03T17:57:04.606Z,11.50
2019-05-03T17:59:35.181Z,11.50
2019-05-03T18:02:22.023Z,11.40
2019-05-03T18:04:55.554Z,11.30
2019-05-03T18:07:30.458Z,11.20
2019-05-03T18:10:00.964Z,11.20
2019-05-03T18:12:29.832Z,11.10
2019-05-03T18:14:58.739Z,11.10
2019-05-03T18:17:27.576Z,11.00
2019-05-03T18:19:57.192Z,11.00
2019-05-03T18:22:26.059Z,10.90
2019-05-03T18:24:55.059Z,10.90
2019-05-03T18:27:25.096Z,10.80
2019-05-03T18:29:55.398Z,10.70
2019-05-03T18:32:25.299Z,10.70
2019-05-03T18:34:54.644Z,10.60
2019-05-03T18:37:24.495Z,10.50
2019-05-03T18:39:54.669Z,10.50
2019-05-03T18:42:35.247Z,10.40
2019-05-03T18:45:23.414Z,10.30
2019-05-03T18:47:52.271Z,10.30
2019-05-03T18:50:21.143Z,10.20
2019-05-03T18:52:49.974Z,10.10
2019-05-03T18:55:18.919Z,10.00
2019-05-03T18:57:47.926Z,9.90
2019-05-03T19:00:18.284Z,9.80
2019-05-03T19:02:47.252Z,9.70
2019-05-03T19:05:17.693Z,9.60
2019-05-03T19:07:51.184Z,9.60
2019-05-03T19:10:30.420Z,9.50
2019-05-03T19:13:00.876Z,9.40
2019-05-03T19:15:31.307Z,9.40
2019-05-03T19:18:04.892Z,9.30
2019-05-03T19:20:35.222Z,9.20
2019-05-03T19:23:04.994Z,9.10
2019-05-03T19:25:45.931Z,9.00
2019-05-03T19:28:07.866Z,8.90
2019-05-03T19:30:36.548Z,8.90
2019-05-03T19:33:05.411Z,8.80
2019-05-03T19:35:36.344Z,8.70
2019-05-03T19:38:04.943Z,8.70
2019-05-03T19:40:35.056Z,8.70
2019-05-03T19:43:05.269Z,8.60
2019-05-03T19:45:35.289Z,8.60
2019-05-03T19:48:04.847Z,8.50
2019-05-03T19:50:35.297Z,8.50
2019-05-03T19:53:06.006Z,8.50
2019-05-03T19:55:34.830Z,8.40
2019-05-03T19:58:05.495Z,8.40
2019-05-03T20:00:44.571Z,8.40
2019-05-03T20:03:15.456Z,8.30
2019-05-03T20:05:51.938Z,8.30
2019-05-03T20:08:22.371Z,8.20
2019-05-03T20:10:54.558Z,8.20
2019-05-03T20:13:32.692Z,8.20
2019-05-03T20:15:55.562Z,8.10
2019-05-03T20:18:25.807Z,8.20
2019-05-03T20:20:55.287Z,8.10
2019-05-03T20:23:25.098Z,8.10
2019-05-03T20:25:54.652Z,8.10
2019-05-03T20:28:24.723Z,8.10
2019-05-03T20:30:54.532Z,8.10
2019-05-03T20:33:24.594Z,8.00
2019-05-03T20:35:56.144Z,8.00
2019-05-03T20:38:24.593Z,8.00
2019-05-03T20:40:57.134Z,8.00
2019-05-03T20:43:41.041Z,8.00
2019-05-03T20:46:11.470Z,8.00
2019-05-03T20:48:49.353Z,8.00
2019-05-03T20:51:18.214Z,7.90
2019-05-03T20:53:52.393Z,7.90
2019-05-03T20:56:21.263Z,7.90
2019-05-03T20:58:50.088Z,7.90
2019-05-03T21:01:18.951Z,7.80
2019-05-03T21:03:47.771Z,7.80
2019-05-03T21:06:16.635Z,7.70
2019-05-03T21:08:52.964Z,7.60
2019-05-03T21:11:15.975Z,7.60
2019-05-03T21:13:45.057Z,7.60
2019-05-03T21:16:15.567Z,7.50
2019-05-03T21:18:48.942Z,7.50
2019-05-03T21:21:19.397Z,7.50
2019-05-03T21:23:55.867Z,7.40
2019-05-03T21:26:25.426Z,7.40
2019-05-03T21:28:55.360Z,7.30
2019-05-03T21:31:24.651Z,7.20
2019-05-03T21:33:55.267Z,7.20
2019-05-03T21:36:25.512Z,7.20
2019-05-03T21:38:54.851Z,7.10
2019-05-03T21:41:24.578Z,7.10
2019-05-03T21:43:54.519Z,7.00
2019-05-03T21:46:25.543Z,6.90
2019-05-03T21:48:59.004Z,6.90
2019-05-03T21:51:28.037Z,6.80
2019-05-03T21:53:56.955Z,6.80
2019-05-03T21:56:25.818Z,6.70
2019-05-03T21:58:55.339Z,6.60
2019-05-03T22:01:25.854Z,6.60
2019-05-03T22:03:54.959Z,6.60
2019-05-03T22:06:24.640Z,6.50
2019-05-03T22:08:55.360Z,6.50
2019-05-03T22:11:25.191Z,6.40
2019-05-03T22:13:57.061Z,6.40
2019-05-03T22:16:46.174Z,6.40
2019-05-03T22:19:17.937Z,6.50
2019-05-03T22:21:49.568Z,6.50
2019-05-03T22:24:20.795Z,6.50
2019-05-03T22:27:04.880Z,6.50
2019-05-03T22:29:35.461Z,6.50
2019-05-03T22:32:05.293Z,6.50
2019-05-03T22:34:34.842Z,6.50
2019-05-03T22:37:04.546Z,6.50
2019-05-03T22:39:33.411Z,6.50
2019-05-03T22:42:04.357Z,6.60
2019-05-03T22:44:32.745Z,6.60
2019-05-03T22:47:01.603Z,6.60
2019-05-03T22:49:30.427Z,6.60
2019-05-03T22:51:59.282Z,6.60
2019-05-03T22:54:28.767Z,6.60
2019-05-03T22:56:57.601Z,6.60
2019-05-03T22:59:26.461Z,6.60
2019-05-03T23:01:55.327Z,6.60
2019-05-03T23:04:25.328Z,6.60
2019-05-03T23:06:55.476Z,6.60
2019-05-03T23:09:25.008Z,6.60
2019-05-03T23:11:55.212Z,6.60
2019-05-03T23:14:25.445Z,6.60
2019-05-03T23:16:54.663Z,6.60
2019-05-03T23:19:23.482Z,6.60
2019-05-03T23:21:54.469Z,6.60
2019-05-03T23:24:24.949Z,6.60
2019-05-03T23:26:53.763Z,6.60
2019-05-03T23:29:22.632Z,6.60
2019-05-03T23:31:51.487Z,6.60
2019-05-03T23:34:20.310Z,6.70
2019-05-03T23:36:49.175Z,6.70
2019-05-03T23:39:18.037Z,6.70
2019-05-03T23:41:46.863Z,6.70
2019-05-03T23:44:15.726Z,6.70
2019-05-03T23:46:55.374Z,6.80
2019-05-03T23:49:25.013Z,6.80
2019-05-03T23:51:55.556Z,6.80
2019-05-03T23:54:24.791Z,6.80
2019-05-03T23:56:54.786Z,6.80
2019-05-03T23:59:23.702Z,6.80
